createdAt,value
2023-03-02T00:00:04.917Z,10.75
2023-03-02T00:02:32.917Z,12.05
2023-03-02T00:05:02.012Z,16.42
2023-03-02T00:07:37.234Z,12.43
2023-03-02T00:10:05.843Z,13.15
2023-03-02T00:12:34.701Z,13.68
2023-03-02T00:15:02.979Z,14.38
2023-03-02T00:17:31.862Z,15.82
2023-03-02T00:20:01.717Z,14.55
2023-03-02T00:22:29.774Z,15.30
2023-03-02T00:24:58.892Z,13.27
2023-03-02T00:27:26.520Z,12.55
2023-03-02T00:29:54.316Z,13.13
2023-03-02T00:32:23.686Z,12.07
2023-03-02T00:34:51.590Z,10.27
2023-03-02T00:37:19.336Z,11.05
2023-03-02T00:39:48.346Z,9.63
2023-03-02T00:42:17.343Z,10.35
2023-03-02T00:44:45.473Z,10.13
2023-03-02T00:47:13.755Z,10.27
2023-03-02T00:49:42.759Z,11.35
2023-03-02T00:52:11.103Z,10.38
2023-03-02T00:54:41.114Z,10.32
2023-03-02T00:57:09.406Z,10.75
2023-03-02T00:59:39.163Z,10.95
2023-03-02T01:02:07.800Z,9.95
2023-03-02T01:04:37.381Z,10.13
2023-03-02T01:07:08.241Z,9.65
2023-03-02T01:09:36.839Z,10.13
2023-03-02T01:12:11.133Z,10.45
2023-03-02T01:14:43.283Z,10.23
2023-03-02T01:17:11.892Z,9.93
2023-03-02T01:19:41.043Z,11.00
2023-03-02T01:22:09.220Z,12.10
2023-03-02T01:24:37.076Z,13.18
2023-03-02T01:27:04.792Z,16.02
2023-03-02T01:29:32.597Z,28.10
2023-03-02T01:32:01.996Z,27.25
2023-03-02T01:34:29.876Z,21.17
2023-03-02T01:36:57.445Z,13.15
2023-03-02T01:39:25.158Z,12.95
2023-03-02T01:41:53.747Z,11.35
2023-03-02T01:44:38.943Z,10.45
2023-03-02T01:47:16.201Z,10.65
2023-03-02T01:49:48.446Z,10.30
2023-03-02T01:52:17.797Z,9.73
2023-03-02T01:54:48.512Z,10.52
2023-03-02T01:57:21.902Z,10.88
2023-03-02T01:59:54.641Z,10.27
2023-03-02T02:02:23.764Z,9.70
2023-03-02T02:04:55.064Z,10.07
2023-03-02T02:07:23.321Z,10.65
2023-03-02T02:09:56.746Z,9.35
2023-03-02T02:12:25.312Z,8.80
2023-03-02T02:14:53.468Z,9.80
2023-03-02T02:17:30.701Z,9.65
2023-03-02T02:20:06.764Z,9.63
2023-03-02T02:22:49.945Z,8.73
2023-03-02T02:25:30.729Z,9.68
2023-03-02T02:28:02.376Z,9.63
2023-03-02T02:30:30.272Z,9.93
2023-03-02T02:32:59.726Z,8.95
2023-03-02T02:35:29.710Z,9.73
2023-03-02T02:38:07.948Z,10.90
2023-03-02T02:40:45.392Z,11.95
2023-03-02T02:43:18.256Z,13.38
2023-03-02T02:45:47.838Z,11.13
2023-03-02T02:48:18.264Z,9.55
2023-03-02T02:50:47.514Z,10.80
2023-03-02T02:53:20.342Z,25.15
2023-03-02T02:55:52.016Z,22.92
2023-03-02T02:58:29.631Z,18.92
2023-03-02T03:00:59.457Z,16.35
2023-03-02T03:03:29.385Z,16.50
2023-03-02T03:06:05.501Z,13.90
2023-03-02T03:08:50.541Z,12.15
2023-03-02T03:11:19.986Z,10.52
2023-03-02T03:13:53.423Z,9.82
2023-03-02T03:16:21.546Z,9.98
2023-03-02T03:18:51.312Z,9.73
2023-03-02T03:21:19.750Z,10.05
2023-03-02T03:23:47.439Z,9.88
2023-03-02T03:26:16.070Z,10.65
2023-03-02T03:28:43.825Z,9.48
2023-03-02T03:31:13.056Z,9.10
2023-03-02T03:33:45.228Z,9.40
2023-03-02T03:36:12.782Z,9.13
2023-03-02T03:38:40.626Z,10.57
2023-03-02T03:41:08.298Z,9.10
2023-03-02T03:43:35.866Z,10.18
2023-03-02T03:46:04.013Z,9.68
2023-03-02T03:48:33.334Z,9.50
2023-03-02T03:51:05.369Z,8.77
2023-03-02T03:53:33.685Z,9.85
2023-03-02T03:56:01.368Z,10.48
2023-03-02T03:58:30.053Z,11.93
2023-03-02T04:00:57.883Z,9.88
2023-03-02T04:03:25.873Z,9.23
2023-03-02T04:08:26.540Z,9.85
2023-03-02T04:10:55.495Z,8.70
2023-03-02T04:13:25.333Z,9.57
2023-03-02T04:15:53.496Z,8.35
2023-03-02T04:18:21.170Z,8.82
2023-03-02T04:20:48.955Z,9.65
2023-03-02T04:23:18.273Z,9.00
2023-03-02T04:25:46.409Z,9.60
2023-03-02T04:28:16.480Z,10.38
2023-03-02T04:30:45.116Z,10.38
2023-03-02T04:33:13.256Z,10.93
2023-03-02T04:35:41.017Z,12.43
2023-03-02T04:38:08.733Z,9.50
2023-03-02T04:40:38.094Z,9.73
2023-03-02T04:43:06.578Z,9.95
2023-03-02T04:45:34.960Z,10.93
2023-03-02T04:48:06.584Z,10.80
2023-03-02T04:50:34.835Z,14.13
2023-03-02T04:53:02.916Z,13.55
2023-03-02T04:55:30.721Z,11.23
2023-03-02T04:57:59.821Z,13.13
2023-03-02T05:00:27.461Z,11.63
2023-03-02T05:02:55.951Z,10.77
2023-03-02T05:05:25.838Z,10.80
2023-03-02T05:07:53.636Z,10.07
2023-03-02T05:10:24.165Z,8.57
2023-03-02T05:12:53.669Z,9.52
2023-03-02T05:15:22.919Z,8.93
2023-03-02T05:17:51.891Z,10.20
2023-03-02T05:20:20.087Z,8.15
2023-03-02T05:22:47.678Z,11.07
2023-03-02T05:25:15.395Z,12.30
2023-03-02T05:27:43.112Z,8.82
2023-03-02T05:30:12.361Z,10.63
2023-03-02T05:32:41.800Z,9.32
2023-03-02T05:35:09.962Z,13.98
2023-03-02T05:37:37.997Z,11.32
2023-03-02T05:40:08.168Z,10.23
2023-03-02T05:42:36.976Z,12.52
2023-03-02T05:45:06.678Z,11.15
2023-03-02T05:47:34.955Z,11.13
2023-03-02T05:50:04.734Z,13.32
2023-03-02T05:52:32.824Z,12.20
2023-03-02T05:55:00.512Z,13.23
2023-03-02T05:57:28.199Z,12.90
2023-03-02T05:59:57.618Z,12.82
2023-03-02T06:02:27.020Z,15.75
2023-03-02T06:04:54.738Z,8.68
2023-03-02T06:07:23.709Z,8.23
2023-03-02T06:09:51.595Z,7.43
2023-03-02T06:12:19.326Z,8.52
2023-03-02T06:14:52.948Z,8.98
2023-03-02T06:17:20.806Z,8.23
2023-03-02T06:19:48.504Z,8.20
2023-03-02T06:22:16.476Z,7.97
2023-03-02T06:24:45.760Z,7.93
2023-03-02T06:27:13.818Z,8.02
2023-03-02T06:29:41.725Z,7.75
2023-03-02T06:32:09.484Z,7.35
2023-03-02T06:34:38.373Z,8.27
2023-03-02T06:37:06.082Z,11.63
2023-03-02T06:39:33.745Z,25.55
2023-03-02T06:42:02.834Z,44.20
2023-03-02T06:44:31.420Z,41.88
2023-03-02T06:46:59.243Z,13.00
2023-03-02T06:49:26.849Z,8.38
2023-03-02T06:51:54.561Z,8.07
2023-03-02T06:54:24.053Z,7.80
2023-03-02T06:56:51.753Z,9.00
2023-03-02T06:59:21.099Z,17.77
2023-03-02T07:01:48.953Z,7.70
2023-03-02T07:04:16.699Z,7.50
2023-03-02T07:06:44.400Z,7.82
2023-03-02T07:09:13.221Z,7.47
2023-03-02T07:11:41.109Z,6.85
2023-03-02T07:14:09.900Z,9.27
2023-03-02T07:16:39.381Z,15.95
2023-03-02T07:19:10.452Z,7.75
2023-03-02T07:21:41.847Z,7.28
2023-03-02T07:24:09.424Z,6.78
2023-03-02T07:26:37.165Z,7.25
2023-03-02T07:29:04.826Z,7.93
2023-03-02T07:31:33.292Z,8.27
2023-03-02T07:34:02.624Z,8.05
2023-03-02T07:36:30.648Z,7.57
2023-03-02T07:39:03.857Z,7.20
2023-03-02T07:41:32.678Z,7.32
2023-03-02T07:44:00.722Z,6.80
2023-03-02T07:46:28.490Z,7.03
2023-03-02T07:48:56.304Z,7.68
2023-03-02T07:51:27.283Z,6.38
2023-03-02T07:53:55.051Z,6.70
2023-03-02T07:56:23.265Z,7.70
2023-03-02T07:58:50.866Z,7.10
2023-03-02T08:01:18.695Z,5.97
2023-03-02T08:03:46.379Z,7.40
2023-03-02T08:06:15.098Z,7.43
2023-03-02T08:08:44.773Z,6.63
2023-03-02T08:11:14.648Z,6.22
2023-03-02T08:13:43.255Z,6.80
2023-03-02T08:16:13.879Z,5.43
2023-03-02T08:18:42.421Z,5.72
2023-03-02T08:21:14.917Z,6.18
2023-03-02T08:23:45.159Z,6.38
2023-03-02T08:26:16.459Z,5.93
2023-03-02T08:28:46.957Z,6.30
2023-03-02T08:31:16.231Z,5.75
2023-03-02T08:33:44.546Z,4.60
2023-03-02T08:36:16.136Z,5.35
2023-03-02T08:38:46.444Z,4.22
2023-03-02T08:41:16.821Z,4.30
2023-03-02T08:43:44.403Z,3.35
2023-03-02T08:46:17.437Z,4.03
2023-03-02T08:48:45.678Z,3.67
2023-03-02T08:51:14.930Z,2.25
2023-03-02T08:53:44.678Z,2.63
2023-03-02T08:56:22.163Z,3.33
2023-03-02T08:58:54.547Z,2.95
2023-03-02T09:01:23.941Z,3.47
2023-03-02T09:03:52.314Z,1.83
2023-03-02T09:06:20.637Z,2.20
2023-03-02T09:08:48.656Z,3.40
2023-03-02T09:11:19.337Z,3.50
2023-03-02T09:13:47.267Z,2.85
2023-03-02T09:16:15.452Z,2.80
2023-03-02T09:18:43.200Z,4.13
2023-03-02T09:21:11.025Z,4.25
2023-03-02T09:23:38.730Z,3.80
2023-03-02T09:26:06.647Z,4.05
2023-03-02T09:28:36.195Z,4.47
2023-03-02T09:31:06.585Z,4.75
2023-03-02T09:33:34.523Z,4.53
2023-03-02T09:36:07.109Z,4.13
2023-03-02T09:38:35.348Z,4.40
2023-03-02T09:41:24.689Z,4.18
2023-03-02T09:44:02.687Z,4.63
2023-03-02T09:46:35.213Z,4.82
2023-03-02T09:49:17.118Z,4.32
2023-03-02T09:51:50.766Z,4.57
2023-03-02T09:54:22.695Z,3.97
2023-03-02T09:56:55.105Z,4.43
2023-03-02T09:59:32.978Z,4.57
2023-03-02T10:02:04.798Z,3.65
2023-03-02T10:04:40.864Z,3.63
2023-03-02T10:07:13.288Z,3.72
2023-03-02T10:09:41.499Z,4.00
2023-03-02T10:12:24.642Z,4.10
2023-03-02T10:15:01.269Z,4.65
2023-03-02T10:17:48.456Z,4.43
2023-03-02T10:20:22.501Z,4.35
2023-03-02T10:22:56.638Z,5.38
2023-03-02T10:25:36.478Z,5.00
2023-03-02T10:28:13.133Z,4.78
2023-03-02T10:30:45.402Z,5.03
2023-03-02T10:33:16.960Z,4.97
2023-03-02T10:38:14.863Z,3.30
2023-03-02T10:40:47.470Z,4.13
2023-03-02T10:43:18.928Z,3.58
2023-03-02T10:45:59.096Z,3.58
2023-03-02T10:48:27.102Z,4.03
2023-03-02T10:50:59.546Z,6.28
2023-03-02T10:53:27.319Z,4.25
2023-03-02T10:55:55.826Z,5.32
2023-03-02T10:58:30.150Z,6.95
2023-03-02T11:01:04.150Z,7.63
2023-03-02T11:03:33.321Z,4.53
2023-03-02T11:06:17.329Z,4.22
2023-03-02T11:08:45.712Z,4.47
2023-03-02T11:11:23.025Z,4.20
2023-03-02T11:13:50.928Z,3.33
2023-03-02T11:16:26.854Z,4.05
2023-03-02T11:19:02.878Z,3.83
2023-03-02T11:21:35.407Z,4.10
2023-03-02T11:24:10.565Z,3.88
2023-03-02T11:26:43.802Z,4.47
2023-03-02T11:29:22.683Z,3.60
2023-03-02T11:31:55.832Z,3.78
2023-03-02T11:34:29.484Z,4.03
2023-03-02T11:37:04.785Z,4.25
2023-03-02T11:39:54.601Z,4.28
2023-03-02T11:42:28.626Z,3.92
2023-03-02T11:44:56.968Z,3.70
2023-03-02T11:47:27.620Z,4.25
2023-03-02T11:49:59.180Z,4.30
2023-03-02T11:54:59.519Z,4.43
2023-03-02T11:57:31.621Z,3.83
2023-03-02T12:00:00.922Z,4.60
2023-03-02T12:02:30.067Z,4.00
2023-03-02T12:05:05.630Z,4.22
2023-03-02T12:07:34.749Z,4.07
2023-03-02T12:10:07.012Z,3.70
2023-03-02T12:12:39.771Z,4.00
2023-03-02T12:15:35.937Z,3.75
2023-03-02T12:18:15.628Z,4.32
2023-03-02T12:20:43.367Z,3.63
2023-03-02T12:23:23.057Z,4.20
2023-03-02T12:26:03.587Z,3.63
2023-03-02T12:28:34.415Z,3.80
2023-03-02T12:31:05.407Z,4.07
2023-03-02T12:33:42.523Z,3.65
2023-03-02T12:36:16.660Z,3.83
2023-03-02T12:38:56.012Z,4.03
2023-03-02T12:41:40.047Z,3.85
2023-03-02T12:44:23.311Z,3.90
2023-03-02T12:46:52.085Z,3.47
2023-03-02T12:49:47.088Z,3.80
2023-03-02T12:52:29.139Z,4.07
2023-03-02T12:55:06.327Z,4.38
2023-03-02T12:57:38.711Z,4.53
2023-03-02T13:02:47.430Z,3.97
2023-03-02T13:07:56.582Z,3.78
2023-03-02T13:10:30.054Z,3.58
2023-03-02T13:12:59.402Z,3.60
2023-03-02T13:15:27.147Z,4.25
2023-03-02T13:17:56.903Z,4.70
2023-03-02T13:20:31.250Z,3.70
2023-03-02T13:23:00.251Z,4.63
2023-03-02T13:25:29.473Z,4.00
2023-03-02T13:27:59.378Z,6.10
2023-03-02T13:30:30.422Z,3.78
2023-03-02T13:33:01.857Z,4.03
2023-03-02T13:35:32.891Z,4.40
2023-03-02T13:38:06.246Z,3.90
2023-03-02T13:40:41.700Z,5.30
2023-03-02T13:43:24.687Z,3.88
2023-03-02T13:45:55.630Z,4.18
2023-03-02T13:48:23.997Z,4.20
2023-03-02T13:50:56.897Z,3.85
2023-03-02T13:53:25.986Z,3.83
2023-03-02T13:55:54.627Z,4.10
2023-03-02T13:58:28.955Z,3.83
2023-03-02T14:00:58.767Z,4.47
2023-03-02T14:03:29.142Z,4.20
2023-03-02T14:06:00.082Z,4.20
2023-03-02T14:08:27.678Z,7.07
2023-03-02T14:11:00.113Z,3.97
2023-03-02T14:13:35.588Z,4.32
2023-03-02T14:16:03.545Z,3.70
2023-03-02T14:18:39.568Z,4.22
2023-03-02T14:21:13.077Z,4.72
2023-03-02T14:23:41.470Z,4.68
2023-03-02T14:26:23.839Z,5.03
2023-03-02T14:29:04.529Z,6.85
2023-03-02T14:31:33.776Z,6.88
2023-03-02T14:34:01.841Z,5.00
2023-03-02T14:36:33.746Z,6.65
2023-03-02T14:39:05.115Z,5.43
2023-03-02T14:41:43.928Z,4.25
2023-03-02T14:44:19.263Z,5.40
2023-03-02T14:46:49.804Z,4.80
2023-03-02T14:49:17.416Z,5.65
2023-03-02T14:51:53.306Z,5.47
2023-03-02T14:54:21.016Z,4.70
2023-03-02T14:56:50.482Z,4.70
2023-03-02T14:59:18.464Z,4.63
2023-03-02T15:01:46.105Z,4.28
2023-03-02T15:04:14.470Z,4.68
2023-03-02T15:06:43.573Z,4.13
2023-03-02T15:09:12.894Z,4.88
2023-03-02T15:11:40.627Z,6.57
2023-03-02T15:14:16.382Z,6.43
2023-03-02T15:16:44.915Z,5.85
2023-03-02T15:19:12.476Z,6.60
2023-03-02T15:21:40.468Z,5.28
2023-03-02T15:24:08.351Z,7.55
2023-03-02T15:26:40.759Z,7.10
2023-03-02T15:29:08.677Z,5.55
2023-03-02T15:31:36.501Z,5.80
2023-03-02T15:34:04.777Z,6.25
2023-03-02T15:36:32.793Z,8.13
2023-03-02T15:39:00.664Z,8.15
2023-03-02T15:41:28.568Z,7.50
2023-03-02T15:43:57.925Z,9.30
2023-03-02T15:46:26.571Z,18.10
2023-03-02T15:48:54.418Z,17.38
2023-03-02T15:51:22.158Z,12.43
2023-03-02T15:53:49.885Z,10.00
2023-03-02T15:56:17.810Z,12.15
2023-03-02T15:58:47.100Z,11.80
2023-03-02T16:01:16.671Z,13.10
2023-03-02T16:03:46.547Z,15.30
2023-03-02T16:06:14.593Z,14.85
2023-03-02T16:08:42.702Z,13.55
2023-03-02T16:11:13.396Z,13.10
2023-03-02T16:13:41.890Z,14.10
2023-03-02T16:16:11.239Z,16.50
2023-03-02T16:18:44.563Z,18.45
2023-03-02T16:21:12.397Z,14.95
2023-03-02T16:23:39.972Z,23.77
2023-03-02T16:26:09.335Z,24.67
2023-03-02T16:28:38.132Z,19.60
2023-03-02T16:31:08.884Z,13.07
2023-03-02T16:33:37.632Z,18.60
2023-03-02T16:36:10.414Z,38.20
2023-03-02T16:38:38.585Z,44.03
2023-03-02T16:41:13.324Z,39.80
2023-03-02T16:43:45.080Z,31.73
2023-03-02T16:46:12.900Z,21.60
2023-03-02T16:48:40.549Z,19.77
2023-03-02T16:51:09.881Z,21.67
2023-03-02T16:53:37.755Z,21.67
2023-03-02T16:56:06.251Z,17.90
2023-03-02T16:58:34.449Z,14.00
2023-03-02T17:01:02.269Z,13.00
2023-03-02T17:03:30.256Z,12.60
2023-03-02T17:05:59.081Z,13.07
2023-03-02T17:08:28.766Z,12.73
2023-03-02T17:10:59.055Z,13.68
2023-03-02T17:13:26.821Z,12.45
2023-03-02T17:15:54.944Z,10.52
2023-03-02T17:18:27.052Z,9.70
2023-03-02T17:20:56.475Z,14.52
2023-03-02T17:23:24.655Z,14.60
2023-03-02T17:25:54.138Z,12.85
2023-03-02T17:28:21.899Z,18.30
2023-03-02T17:30:49.605Z,25.83
2023-03-02T17:33:17.722Z,27.98
2023-03-02T17:35:49.277Z,28.77
2023-03-02T17:38:17.720Z,26.55
2023-03-02T17:40:49.298Z,21.52
2023-03-02T17:43:18.952Z,18.67
2023-03-02T17:45:46.687Z,18.00
2023-03-02T17:48:14.254Z,18.15
2023-03-02T17:50:42.103Z,14.45
2023-03-02T17:53:17.645Z,10.57
2023-03-02T17:55:45.326Z,10.63
2023-03-02T17:58:13.764Z,10.88
2023-03-02T18:00:43.113Z,9.82
2023-03-02T18:05:41.114Z,13.20
2023-03-02T18:08:08.707Z,15.73
2023-03-02T18:10:45.585Z,16.42
2023-03-02T18:13:14.877Z,15.52
2023-03-02T18:15:44.035Z,13.93
2023-03-02T18:18:12.802Z,12.50
2023-03-02T18:20:40.553Z,10.63
2023-03-02T18:23:10.376Z,10.40
2023-03-02T18:25:38.867Z,11.95
2023-03-02T18:28:06.873Z,15.07
2023-03-02T18:30:35.025Z,17.52
2023-03-02T18:33:04.447Z,18.92
2023-03-02T18:35:32.364Z,17.92
2023-03-02T18:37:59.989Z,19.13
2023-03-02T18:40:28.220Z,20.40
2023-03-02T18:42:56.073Z,20.33
2023-03-02T18:45:26.338Z,19.98
2023-03-02T18:47:54.960Z,24.05
2023-03-02T18:50:24.762Z,27.02
2023-03-02T18:52:53.010Z,26.73
2023-03-02T18:55:21.746Z,30.33
2023-03-02T18:57:51.095Z,33.88
2023-03-02T19:00:22.195Z,35.90
2023-03-02T19:02:50.509Z,33.83
2023-03-02T19:05:19.854Z,32.08
2023-03-02T19:07:49.891Z,32.42
2023-03-02T19:10:20.014Z,29.60
2023-03-02T19:12:49.691Z,28.98
2023-03-02T19:15:20.341Z,29.40
2023-03-02T19:17:49.178Z,25.70
2023-03-02T19:20:19.354Z,25.02
2023-03-02T19:22:49.006Z,24.13
2023-03-02T19:25:16.643Z,29.67
2023-03-02T19:27:44.235Z,33.35
2023-03-02T19:30:19.219Z,39.95
2023-03-02T19:32:49.024Z,34.65
2023-03-02T19:35:17.391Z,31.60
2023-03-02T19:37:45.846Z,26.17
2023-03-02T19:40:17.119Z,29.55
2023-03-02T19:42:44.880Z,25.80
2023-03-02T19:45:15.757Z,24.30
2023-03-02T19:47:43.402Z,25.98
2023-03-02T19:50:31.608Z,28.83
2023-03-02T19:53:00.327Z,26.77
2023-03-02T19:55:29.750Z,23.83
2023-03-02T19:57:57.550Z,20.02
2023-03-02T20:00:26.106Z,20.77
2023-03-02T20:02:53.827Z,17.33
2023-03-02T20:05:21.603Z,18.25
2023-03-02T20:07:49.558Z,21.40
2023-03-02T20:10:27.221Z,29.05
2023-03-02T20:12:56.705Z,39.13
2023-03-02T20:15:24.740Z,37.67
2023-03-02T20:18:02.270Z,38.88
2023-03-02T20:20:30.874Z,37.03
2023-03-02T20:22:58.730Z,37.13
2023-03-02T20:25:27.521Z,35.13
2023-03-02T20:27:57.517Z,35.22
2023-03-02T20:30:29.860Z,34.53
2023-03-02T20:32:59.008Z,37.95
2023-03-02T20:35:29.063Z,36.45
2023-03-02T20:37:59.525Z,35.30
2023-03-02T20:40:28.140Z,33.55
2023-03-02T20:42:58.678Z,32.58
2023-03-02T20:45:26.834Z,31.88
2023-03-02T20:47:54.640Z,36.38
2023-03-02T20:50:26.329Z,38.35
2023-03-02T20:52:54.098Z,33.33
2023-03-02T20:55:21.918Z,35.20
2023-03-02T20:57:49.673Z,35.53
2023-03-02T21:00:22.444Z,33.50
2023-03-02T21:02:50.958Z,34.55
2023-03-02T21:05:21.776Z,37.13
2023-03-02T21:07:51.913Z,28.92
2023-03-02T21:10:22.052Z,31.42
2023-03-02T21:12:49.706Z,28.83
2023-03-02T21:15:19.668Z,27.45
2023-03-02T21:17:47.585Z,29.05
2023-03-02T21:20:17.780Z,30.58
2023-03-02T21:22:46.047Z,30.02
2023-03-02T21:25:14.285Z,30.67
2023-03-02T21:27:43.435Z,30.45
2023-03-02T21:30:20.112Z,30.80
2023-03-02T21:32:50.753Z,31.20
2023-03-02T21:35:20.950Z,32.20
2023-03-02T21:37:51.319Z,33.00
2023-03-02T21:40:22.505Z,32.40
2023-03-02T21:42:50.263Z,33.75
2023-03-02T21:45:18.097Z,32.38
2023-03-02T21:47:46.691Z,31.80
2023-03-02T21:50:18.376Z,28.70
2023-03-02T21:55:13.352Z,28.15
2023-03-02T21:57:41.844Z,23.73
2023-03-02T22:00:18.195Z,21.33
2023-03-02T22:02:46.299Z,25.15
2023-03-02T22:05:15.562Z,27.02
2023-03-02T22:07:43.363Z,29.77
2023-03-02T22:10:22.763Z,29.38
2023-03-02T22:12:55.567Z,29.70
2023-03-02T22:15:23.522Z,28.55
2023-03-02T22:17:56.532Z,30.92
2023-03-02T22:20:25.954Z,30.45
2023-03-02T22:22:54.211Z,29.73
2023-03-02T22:25:22.078Z,33.70
2023-03-02T22:27:50.747Z,32.45
2023-03-02T22:30:21.174Z,32.25
2023-03-02T22:32:50.715Z,30.25
2023-03-02T22:35:22.073Z,29.92
2023-03-02T22:37:59.436Z,36.80
2023-03-02T22:40:29.714Z,42.08
2023-03-02T22:43:08.858Z,46.17
2023-03-02T22:45:41.875Z,40.13
2023-03-02T22:48:18.162Z,40.40
2023-03-02T22:50:47.214Z,34.35
2023-03-02T22:53:24.849Z,39.95
2023-03-02T22:55:58.560Z,41.45
2023-03-02T22:58:32.359Z,37.85
2023-03-02T23:01:01.565Z,28.75
2023-03-02T23:03:37.803Z,33.08
2023-03-02T23:06:22.259Z,29.85
2023-03-02T23:08:59.834Z,26.73
2023-03-02T23:11:28.390Z,27.42
2023-03-02T23:13:56.208Z,25.35
2023-03-02T23:16:25.931Z,25.60
2023-03-02T23:18:56.117Z,34.00
2023-03-02T23:21:34.995Z,34.00
2023-03-02T23:24:04.555Z,27.48
2023-03-02T23:26:32.421Z,23.00
2023-03-02T23:29:20.718Z,27.23
2023-03-02T23:31:50.213Z,24.40
2023-03-02T23:34:18.034Z,23.08
2023-03-02T23:36:46.534Z,26.90
2023-03-02T23:39:15.838Z,26.35
2023-03-02T23:41:43.414Z,26.05
2023-03-02T23:44:11.158Z,27.55
2023-03-02T23:46:38.901Z,26.35
2023-03-02T23:49:07.145Z,26.80
2023-03-02T23:51:35.240Z,29.77
2023-03-02T23:54:04.837Z,27.95
2023-03-02T23:56:34.664Z,30.75
2023-03-02T23:59:03.364Z,30.42
